Pembroke, NC

8:55 PM EST on November 25, 2014 (GMT -0500)
Fayetteville Regional-Grannis | Change Station
CLOSE
Current Station
Airport
Location: Fayetteville,
Elevation: 190 ft
Nearby Weather Stations

Elev 190 ft 34.99 °N, 78.88 °W | Updated 22 minutes ago

Overcast
Overcast
51 °F
Feels Like 51 °F
N
7
Wind Variable Wind from NE

Today
High -- | Low -- °F
--% Chance of Precip.
Yesterday
High -- | Low -- °F
Precip. -- in
7:00 AM 5:07 PM
Waxing Crescent, 15% visible
Pressure 30.08 in
Visibility 10.0 miles
Clouds Scattered Clouds 1500 ft
Scattered Clouds 7500 ft
Overcast 9500 ft
Dew Point 48 °F
Humidity 89%
Rainfall 0.43 in
Snow Depth Not available.
UV 0 out of 12
Pollen 1.90 out of 12
Air Quality Not available.
Flu Activity Not available.
SPECI KFAY 260133Z AUTO 04006KT 10SM -RA SCT015 SCT075 OVC095 11/09 A3008 RMK AO2 RAE0059B29 P0000 T01060089

More Conditions Fewer Conditions

Pressure 30.08 in
Visibility 10.0 miles
Clouds Scattered Clouds 1500 ft
Scattered Clouds 7500 ft
Overcast 9500 ft
Dew Point 48 °F
Humidity 89%
Rainfall 0.43 in
Snow Depth Not available.
UV 0 out of 12
Pollen 1.90 out of 12
Air Quality Not available.
Flu Activity Not available.
SPECI KFAY 260133Z AUTO 04006KT 10SM -RA SCT015 SCT075 OVC095 11/09 A3008 RMK AO2 RAE0059B29 P0000 T01060089

More Conditions Fewer Conditions

10-Day Weather Forecast

Almanac

Astronomy

Nov. 25, 2014 Rise Set
Actual Time
Civil Twilight
Nautical Twilight
Astronomical Twilight
Moon
Length of Visible Light
Length of Day
Tomorrow will be .
, % of the Moon is Illuminated

Today's Extremes

State Highs State Lows

Community

WunderPhotos

Upload Photos

1,773,634 photos uploaded!

WunderBlogs® & News

Nearby

Air Quality

  Air Quality AQ Index Pollutant
Not available.

Snow Depth

Station Depth Elevation

Earthquake Activity

City Distance Mag. Time & Date
Minimum magnitude displayed is 2.5.

Coastal Water Temperatures

Place Temperature

Nearby Weather Stations